createdAt,value
2022-08-18T00:00:41.671Z,17.60
2022-08-18T00:03:53.477Z,19.20
2022-08-18T00:06:19.707Z,19.80
2022-08-18T00:08:52.399Z,19.10
2022-08-18T00:11:25.564Z,20.30
2022-08-18T00:13:57.664Z,20.90
2022-08-18T00:16:32.274Z,22.10
2022-08-18T00:19:09.105Z,19.50
2022-08-18T00:21:41.502Z,20.50
2022-08-18T00:24:13.494Z,20.00
2022-08-18T00:26:54.809Z,19.60
2022-08-18T00:29:27.179Z,19.20
2022-08-18T00:31:59.386Z,18.60
2022-08-18T00:34:31.391Z,19.80
2022-08-18T00:37:04.270Z,19.80
2022-08-18T00:39:36.108Z,19.50
2022-08-18T00:42:27.490Z,19.10
2022-08-18T00:45:07.139Z,18.80
2022-08-18T00:47:42.987Z,19.50
2022-08-18T00:50:19.499Z,18.20
2022-08-18T00:52:57.113Z,16.90
2022-08-18T00:55:31.659Z,17.70
2022-08-18T00:58:08.062Z,19.10
2022-08-18T01:00:40.341Z,18.60
2022-08-18T01:03:16.372Z,17.80
2022-08-18T01:06:04.465Z,17.20
2022-08-18T01:08:36.447Z,18.50
2022-08-18T01:11:09.384Z,18.60
2022-08-18T01:13:51.940Z,17.00
2022-08-18T01:16:56.938Z,17.80
2022-08-18T01:19:47.774Z,15.80
2022-08-18T01:22:25.884Z,16.50
2022-08-18T01:25:18.893Z,16.10
2022-08-18T01:27:50.757Z,16.70
2022-08-18T01:30:25.713Z,16.70
2022-08-18T01:32:58.738Z,17.40
2022-08-18T01:35:41.731Z,18.00
2022-08-18T01:38:13.766Z,18.90
2022-08-18T01:41:22.676Z,17.70
2022-08-18T01:43:38.381Z,17.30
2022-08-18T01:46:10.378Z,16.60
2022-08-18T01:48:43.266Z,15.40
2022-08-18T01:51:15.145Z,16.30
2022-08-18T01:53:48.694Z,16.90
2022-08-18T01:56:24.153Z,16.50
2022-08-18T01:58:56.836Z,15.70
2022-08-18T02:01:36.608Z,16.20
2022-08-18T02:04:33.861Z,17.20
2022-08-18T02:07:02.838Z,18.00
2022-08-18T02:09:37.859Z,17.50
2022-08-18T02:12:10.391Z,17.30
2022-08-18T02:14:42.572Z,16.80
2022-08-18T02:17:15.358Z,16.20
2022-08-18T02:19:48.689Z,17.20
2022-08-18T02:22:21.958Z,17.20
2022-08-18T02:24:53.696Z,17.80
2022-08-18T02:27:25.565Z,16.90
2022-08-18T02:30:02.606Z,18.30
2022-08-18T02:32:35.584Z,18.80
2022-08-18T02:35:11.679Z,19.00
2022-08-18T02:37:47.953Z,18.40
2022-08-18T02:40:20.598Z,16.70
2022-08-18T02:42:54.444Z,18.20
2022-08-18T02:45:26.199Z,17.30
2022-08-18T02:48:01.097Z,17.30
2022-08-18T02:50:44.816Z,17.20
2022-08-18T02:53:22.208Z,19.60
2022-08-18T02:55:54.093Z,18.30
2022-08-18T02:58:29.312Z,17.30
2022-08-18T03:01:03.554Z,17.00
2022-08-18T03:03:36.332Z,17.50
2022-08-18T03:06:08.629Z,16.80
2022-08-18T03:08:40.438Z,16.10
2022-08-18T03:11:12.350Z,16.80
2022-08-18T03:13:44.566Z,15.00
2022-08-18T03:16:17.126Z,15.90
2022-08-18T03:18:49.275Z,15.70
2022-08-18T03:21:24.349Z,15.40
2022-08-18T03:24:01.462Z,15.10
2022-08-18T03:26:35.229Z,15.70
2022-08-18T03:29:07.329Z,14.50
2022-08-18T03:31:49.635Z,15.10
2022-08-18T03:34:31.701Z,13.60
2022-08-18T03:37:03.880Z,14.10
2022-08-18T03:39:35.836Z,14.60
2022-08-18T03:42:08.181Z,13.10
2022-08-18T03:44:40.205Z,14.90
2022-08-18T03:47:12.433Z,13.70
2022-08-18T03:49:44.311Z,13.80
2022-08-18T03:52:18.362Z,12.70
2022-08-18T03:54:50.106Z,14.00
2022-08-18T03:57:24.384Z,14.80
2022-08-18T03:59:58.958Z,14.70
2022-08-18T04:02:30.742Z,14.50
2022-08-18T04:05:22.938Z,15.00
2022-08-18T04:07:55.130Z,15.30
2022-08-18T04:10:27.734Z,16.30
2022-08-18T04:13:01.487Z,15.80
2022-08-18T04:15:35.966Z,15.50
2022-08-18T04:18:09.066Z,16.00
2022-08-18T04:20:59.947Z,16.10
2022-08-18T04:23:43.854Z,15.50
2022-08-18T04:26:19.384Z,15.40
2022-08-18T04:28:51.503Z,16.30
2022-08-18T04:31:24.888Z,17.20
2022-08-18T04:33:57.487Z,18.00
2022-08-18T04:36:31.187Z,18.60
2022-08-18T04:39:03.585Z,16.20
2022-08-18T04:41:35.937Z,15.60
2022-08-18T04:44:09.867Z,15.30
2022-08-18T04:46:44.726Z,16.00
2022-08-18T04:49:18.621Z,15.40
2022-08-18T04:52:26.882Z,15.30
2022-08-18T04:55:03.924Z,15.40
2022-08-18T04:57:36.052Z,14.40
2022-08-18T05:00:13.707Z,16.50
2022-08-18T05:02:45.580Z,16.60
2022-08-18T05:05:17.646Z,16.00
2022-08-18T05:07:49.564Z,16.00
2022-08-18T05:10:23.712Z,15.20
2022-08-18T05:12:55.737Z,15.40
2022-08-18T05:15:27.615Z,16.20
2022-08-18T05:17:59.358Z,17.00
2022-08-18T05:20:33.985Z,17.70
2022-08-18T05:23:09.519Z,18.00
2022-08-18T05:25:41.408Z,16.80
2022-08-18T05:28:14.386Z,15.50
2022-08-18T05:30:46.731Z,15.30
2022-08-18T05:33:18.569Z,15.30
2022-08-18T05:35:56.216Z,14.20
2022-08-18T05:38:39.775Z,14.60
2022-08-18T05:41:27.916Z,14.30
2022-08-18T05:43:59.971Z,14.70
2022-08-18T05:46:40.474Z,16.00
2022-08-18T05:49:15.209Z,20.70
2022-08-18T05:54:41.024Z,25.80
2022-08-18T05:57:18.470Z,23.10
2022-08-18T05:59:53.467Z,20.50
2022-08-18T06:02:33.411Z,16.40
2022-08-18T06:05:11.935Z,15.80
2022-08-18T06:07:50.584Z,17.00
2022-08-18T06:10:23.312Z,17.90
2022-08-18T06:12:58.738Z,17.80
2022-08-18T06:15:39.908Z,18.10
2022-08-18T06:18:28.846Z,16.80
2022-08-18T06:21:21.293Z,17.90
2022-08-18T06:24:04.221Z,17.90
2022-08-18T06:26:43.664Z,18.40
2022-08-18T06:29:29.987Z,18.50
2022-08-18T06:32:16.718Z,19.70
2022-08-18T06:35:04.035Z,17.30
2022-08-18T06:38:03.859Z,16.10
2022-08-18T06:40:36.772Z,15.50
2022-08-18T06:43:15.926Z,16.50
2022-08-18T06:45:51.827Z,16.50
2022-08-18T06:48:31.105Z,15.90
2022-08-18T06:51:05.124Z,15.80
2022-08-18T06:53:57.327Z,15.40
2022-08-18T06:56:37.107Z,13.70
2022-08-18T06:59:25.120Z,13.50
2022-08-18T07:02:02.081Z,13.30
2022-08-18T07:04:37.848Z,12.20
2022-08-18T07:07:40.226Z,13.60
2022-08-18T07:10:31.836Z,12.70
2022-08-18T07:13:22.418Z,11.80
2022-08-18T07:15:54.951Z,12.00
2022-08-18T07:18:31.017Z,12.80
2022-08-18T07:21:03.475Z,11.90
2022-08-18T07:23:39.364Z,12.70
2022-08-18T07:26:15.213Z,13.30
2022-08-18T07:28:50.032Z,11.60
2022-08-18T07:31:35.010Z,10.70
2022-08-18T07:34:12.650Z,11.30
2022-08-18T07:36:51.369Z,11.30
2022-08-18T07:39:29.130Z,10.90
2022-08-18T07:42:09.695Z,10.80
2022-08-18T07:44:54.821Z,11.20
2022-08-18T07:47:33.423Z,11.20
2022-08-18T07:50:27.215Z,10.40
2022-08-18T07:53:12.539Z,10.80
2022-08-18T07:55:52.860Z,10.80
2022-08-18T07:58:33.615Z,10.80
2022-08-18T08:01:14.090Z,11.10
2022-08-18T08:03:55.793Z,10.80
2022-08-18T08:06:34.619Z,10.50
2022-08-18T08:09:26.908Z,10.80
2022-08-18T08:12:04.161Z,11.00
2022-08-18T08:17:23.828Z,10.50
2022-08-18T08:20:18.724Z,10.50
2022-08-18T08:23:01.513Z,10.10
2022-08-18T08:25:46.696Z,10.60
2022-08-18T08:28:31.599Z,10.60
2022-08-18T08:34:13.653Z,9.70
2022-08-18T08:36:48.492Z,9.60
2022-08-18T08:39:26.180Z,9.80
2022-08-18T08:42:32.161Z,9.60
2022-08-18T08:45:09.861Z,9.70
2022-08-18T08:47:47.752Z,9.70
2022-08-18T08:50:23.032Z,9.10
2022-08-18T08:53:00.656Z,9.40
2022-08-18T08:55:36.331Z,9.00
2022-08-18T08:58:23.440Z,8.80
2022-08-18T09:00:58.868Z,8.60
2022-08-18T09:03:41.563Z,8.90
2022-08-18T09:06:26.439Z,8.70
2022-08-18T09:09:28.622Z,8.80
2022-08-18T09:12:20.483Z,8.90
2022-08-18T09:15:14.465Z,7.90
2022-08-18T09:18:07.110Z,8.10
2022-08-18T09:20:53.370Z,7.70
2022-08-18T09:23:29.542Z,8.00
2022-08-18T09:26:22.587Z,8.60
2022-08-18T09:29:00.778Z,7.70
2022-08-18T09:31:34.038Z,8.30
2022-08-18T09:34:32.007Z,8.10
2022-08-18T09:37:13.484Z,8.60
2022-08-18T09:43:15.141Z,8.80
2022-08-18T09:45:59.810Z,9.10
2022-08-18T09:48:35.293Z,7.80
2022-08-18T09:51:33.647Z,8.50
2022-08-18T09:57:27.314Z,8.30
2022-08-18T10:00:26.629Z,8.70
2022-08-18T10:03:25.802Z,8.30
2022-08-18T10:06:13.606Z,9.00
2022-08-18T10:09:02.831Z,8.50
2022-08-18T10:12:16.169Z,8.60
2022-08-18T10:15:05.013Z,8.80
2022-08-18T10:20:39.239Z,8.50
2022-08-18T10:23:42.735Z,8.40
2022-08-18T10:26:54.984Z,8.20
2022-08-18T10:29:57.125Z,8.70
2022-08-18T10:32:44.233Z,8.40
2022-08-18T10:36:00.225Z,7.50
2022-08-18T10:38:54.071Z,8.00
2022-08-18T10:41:34.808Z,7.50
2022-08-18T10:44:27.679Z,7.80
2022-08-18T10:47:01.505Z,8.20
2022-08-18T10:49:34.505Z,7.90
2022-08-18T10:52:21.120Z,8.00
2022-08-18T10:55:14.418Z,8.00
2022-08-18T10:58:21.328Z,8.10
2022-08-18T11:01:07.879Z,7.70
2022-08-18T11:03:59.659Z,8.10
2022-08-18T11:06:54.600Z,7.40
2022-08-18T11:09:29.052Z,8.20
2022-08-18T11:12:03.501Z,7.60
2022-08-18T11:15:22.164Z,7.30
2022-08-18T11:18:14.392Z,7.80
2022-08-18T11:20:47.439Z,7.90
2022-08-18T11:23:33.279Z,8.10
2022-08-18T11:26:32.383Z,8.20
2022-08-18T11:29:15.525Z,8.40
2022-08-18T11:34:52.090Z,7.90
2022-08-18T11:37:48.951Z,7.80
2022-08-18T11:41:10.668Z,8.00
2022-08-18T11:43:29.503Z,7.80
2022-08-18T11:46:31.906Z,7.80
2022-08-18T11:49:24.158Z,7.30
2022-08-18T11:54:50.807Z,7.70
2022-08-18T11:57:46.902Z,7.90
2022-08-18T12:00:44.166Z,7.70
2022-08-18T12:03:39.443Z,7.80
2022-08-18T12:06:26.589Z,7.20
2022-08-18T12:09:05.507Z,7.80
2022-08-18T12:11:50.009Z,7.40
2022-08-18T12:14:31.898Z,7.70
2022-08-18T12:17:10.537Z,7.70
2022-08-18T12:19:42.972Z,7.10
2022-08-18T12:22:19.855Z,7.90
2022-08-18T12:24:55.270Z,7.40
2022-08-18T12:27:31.871Z,7.10
2022-08-18T12:30:05.643Z,7.70
2022-08-18T12:32:54.758Z,6.90
2022-08-18T12:35:28.766Z,7.20
2022-08-18T12:40:53.348Z,8.10
2022-08-18T12:43:25.167Z,7.50
2022-08-18T12:46:05.746Z,7.30
2022-08-18T12:48:40.685Z,7.50
2022-08-18T12:51:12.917Z,7.90
2022-08-18T12:53:59.307Z,7.60
2022-08-18T12:56:33.473Z,7.80
2022-08-18T12:59:09.479Z,8.30
2022-08-18T13:01:42.442Z,7.70
2022-08-18T13:04:15.633Z,7.90
2022-08-18T13:07:00.153Z,7.40
2022-08-18T13:09:53.296Z,7.90
2022-08-18T13:12:27.327Z,7.70
2022-08-18T13:15:01.592Z,8.20
2022-08-18T13:17:34.431Z,8.40
2022-08-18T13:20:13.388Z,8.30
2022-08-18T13:22:45.877Z,8.20
2022-08-18T13:25:32.495Z,8.20
2022-08-18T13:28:10.699Z,8.60
2022-08-18T13:30:46.513Z,8.30
2022-08-18T13:33:35.121Z,8.20
2022-08-18T13:36:11.517Z,7.90
2022-08-18T13:38:43.866Z,8.30
2022-08-18T13:41:16.799Z,8.80
2022-08-18T13:43:48.875Z,8.10
2022-08-18T13:46:24.340Z,8.10
2022-08-18T13:49:11.744Z,8.20
2022-08-18T13:51:45.660Z,8.90
2022-08-18T13:54:31.291Z,9.00
2022-08-18T13:57:07.049Z,7.60
2022-08-18T13:59:46.459Z,8.30
2022-08-18T14:02:19.099Z,7.90
2022-08-18T14:04:58.651Z,8.10
2022-08-18T14:07:31.890Z,8.50
2022-08-18T14:10:10.763Z,8.70
2022-08-18T14:12:46.946Z,8.00
2022-08-18T14:15:22.291Z,7.90
2022-08-18T14:17:55.344Z,8.00
2022-08-18T14:20:48.554Z,8.50
2022-08-18T14:23:37.658Z,8.90
2022-08-18T14:26:26.868Z,8.90
2022-08-18T14:28:59.360Z,8.60
2022-08-18T14:31:32.600Z,9.20
2022-08-18T14:34:06.053Z,9.40
2022-08-18T14:36:37.989Z,8.90
2022-08-18T14:39:10.786Z,9.10
2022-08-18T14:41:49.541Z,9.50
2022-08-18T14:44:32.289Z,9.00
2022-08-18T14:47:04.889Z,8.90
2022-08-18T14:49:42.950Z,9.40
2022-08-18T14:52:21.507Z,9.50
2022-08-18T14:54:53.545Z,9.40
2022-08-18T14:57:26.885Z,9.30
2022-08-18T14:59:58.857Z,8.80
2022-08-18T15:02:30.657Z,8.20
2022-08-18T15:05:02.485Z,8.10
2022-08-18T15:07:51.715Z,8.10
2022-08-18T15:10:28.027Z,7.70
2022-08-18T15:13:02.606Z,7.90
2022-08-18T15:15:50.672Z,7.40
2022-08-18T15:18:23.922Z,7.70
2022-08-18T15:21:34.717Z,7.50
2022-08-18T15:24:26.144Z,7.40
2022-08-18T15:27:03.184Z,7.60
2022-08-18T15:29:41.442Z,7.70
2022-08-18T15:32:17.655Z,7.90
2022-08-18T15:34:52.548Z,8.90
2022-08-18T15:37:24.606Z,8.70
2022-08-18T15:40:21.810Z,8.90
2022-08-18T15:43:10.032Z,8.40
2022-08-18T15:45:56.188Z,9.10
2022-08-18T15:48:30.829Z,8.50
2022-08-18T15:51:11.527Z,9.00
2022-08-18T15:53:44.983Z,9.00
2022-08-18T15:56:20.937Z,9.10
2022-08-18T15:58:53.785Z,9.50
2022-08-18T16:01:32.300Z,8.30
2022-08-18T16:04:05.788Z,8.20
2022-08-18T16:06:41.254Z,8.30
2022-08-18T16:09:13.550Z,8.60
2022-08-18T16:11:48.958Z,9.50
2022-08-18T16:14:20.871Z,8.60
2022-08-18T16:16:55.260Z,8.30
2022-08-18T16:19:30.259Z,8.60
2022-08-18T16:22:07.543Z,8.20
2022-08-18T16:24:39.379Z,9.60
2022-08-18T16:27:13.777Z,8.40
2022-08-18T16:29:45.447Z,8.90
2022-08-18T16:32:17.406Z,9.60
2022-08-18T16:34:50.081Z,10.50
2022-08-18T16:37:21.826Z,10.00
2022-08-18T16:39:53.637Z,9.00
2022-08-18T16:42:25.694Z,9.90
2022-08-18T16:44:57.770Z,8.80
2022-08-18T16:47:29.778Z,9.10
2022-08-18T16:50:05.582Z,9.10
2022-08-18T16:52:37.854Z,8.60
2022-08-18T16:55:12.504Z,10.10
2022-08-18T16:58:02.784Z,9.40
2022-08-18T17:00:54.899Z,9.20
2022-08-18T17:03:44.754Z,9.70
2022-08-18T17:06:19.422Z,9.20
2022-08-18T17:08:51.183Z,9.60
2022-08-18T17:11:24.484Z,9.10
2022-08-18T17:14:01.282Z,9.80
2022-08-18T17:16:34.899Z,10.50
2022-08-18T17:19:08.149Z,9.40
2022-08-18T17:21:41.018Z,9.50
2022-08-18T17:24:12.883Z,10.60
2022-08-18T17:26:54.549Z,11.10
2022-08-18T17:29:33.343Z,14.50
2022-08-18T17:32:10.675Z,15.90
2022-08-18T17:37:25.054Z,15.20
2022-08-18T17:40:02.189Z,13.20
2022-08-18T17:42:34.805Z,12.60
2022-08-18T17:45:21.859Z,13.30
2022-08-18T17:47:58.963Z,12.60
2022-08-18T17:50:53.490Z,13.10
2022-08-18T17:53:26.211Z,13.10
2022-08-18T17:56:05.150Z,12.60
2022-08-18T17:58:40.717Z,12.90
2022-08-18T18:01:14.099Z,14.90
2022-08-18T18:03:49.052Z,17.50
2022-08-18T18:06:31.794Z,15.40
2022-08-18T18:09:06.667Z,15.10
2022-08-18T18:11:41.386Z,15.00
2022-08-18T18:14:28.964Z,15.20
2022-08-18T18:17:12.766Z,16.20
2022-08-18T18:19:48.369Z,22.10
2022-08-18T18:22:24.264Z,33.50
2022-08-18T18:24:59.158Z,31.40
2022-08-18T18:27:42.001Z,27.00
2022-08-18T18:30:27.728Z,22.70
2022-08-18T18:33:08.188Z,22.40
2022-08-18T18:35:54.649Z,20.20
2022-08-18T18:38:30.907Z,20.50
2022-08-18T18:41:06.838Z,22.00
2022-08-18T18:43:44.779Z,21.60
2022-08-18T18:46:31.232Z,20.30
2022-08-18T18:49:18.325Z,15.90
2022-08-18T18:52:03.898Z,17.10
2022-08-18T18:54:49.820Z,16.60
2022-08-18T18:57:32.062Z,16.00
2022-08-18T19:00:18.159Z,22.80
2022-08-18T19:03:10.863Z,16.70
2022-08-18T19:05:50.015Z,16.30
2022-08-18T19:08:39.737Z,16.10
2022-08-18T19:11:29.624Z,16.30
2022-08-18T19:14:07.312Z,16.20
2022-08-18T19:16:46.404Z,16.00
2022-08-18T19:19:37.575Z,17.70
2022-08-18T19:22:22.059Z,15.20
2022-08-18T19:25:01.512Z,15.80
2022-08-18T19:27:40.092Z,15.00
2022-08-18T19:30:16.193Z,14.40
2022-08-18T19:32:54.114Z,16.40
2022-08-18T19:35:38.402Z,16.40
2022-08-18T19:38:32.870Z,16.70
2022-08-18T19:41:11.864Z,18.90
2022-08-18T19:43:51.149Z,17.20
2022-08-18T19:46:34.813Z,15.60
2022-08-18T19:49:18.667Z,15.10
2022-08-18T19:52:01.184Z,15.00
2022-08-18T19:54:47.031Z,15.60
2022-08-18T19:57:35.041Z,16.10
2022-08-18T20:00:22.909Z,15.80
2022-08-18T20:03:14.613Z,15.20
2022-08-18T20:06:34.192Z,14.60
2022-08-18T20:09:31.427Z,14.60
2022-08-18T20:12:26.876Z,15.30
2022-08-18T20:15:13.320Z,14.00
2022-08-18T20:18:22.905Z,14.60
2022-08-18T20:21:41.209Z,17.40
2022-08-18T20:24:50.288Z,16.80
2022-08-18T20:27:32.798Z,16.40
2022-08-18T20:30:28.940Z,16.70
2022-08-18T20:33:17.676Z,16.70
2022-08-18T20:36:06.377Z,18.00
2022-08-18T20:38:40.982Z,17.80
2022-08-18T20:41:39.181Z,18.20
2022-08-18T20:44:36.621Z,16.90
2022-08-18T20:47:36.690Z,19.50
2022-08-18T20:50:42.040Z,25.70
2022-08-18T20:53:26.446Z,17.40
2022-08-18T20:56:31.458Z,16.70
2022-08-18T20:59:20.298Z,17.50
2022-08-18T21:02:04.860Z,19.10
2022-08-18T21:04:48.410Z,18.80
2022-08-18T21:07:34.221Z,17.90
2022-08-18T21:10:20.470Z,17.40
2022-08-18T21:12:55.353Z,17.30
2022-08-18T21:15:31.503Z,16.20
2022-08-18T21:18:05.972Z,16.50
2022-08-18T21:20:38.020Z,16.60
2022-08-18T21:23:12.622Z,16.20
2022-08-18T21:25:53.457Z,15.00
2022-08-18T21:28:29.382Z,15.10
2022-08-18T21:31:43.126Z,15.30
2022-08-18T21:34:04.676Z,14.70
2022-08-18T21:36:37.980Z,16.90
2022-08-18T21:39:16.135Z,16.00
2022-08-18T21:41:50.347Z,17.00
2022-08-18T21:44:24.671Z,17.60
2022-08-18T21:47:07.759Z,15.30
2022-08-18T21:49:39.581Z,16.10
2022-08-18T21:52:12.045Z,15.70
2022-08-18T21:54:48.902Z,16.10
2022-08-18T21:57:23.427Z,15.60
2022-08-18T22:00:17.058Z,15.10
2022-08-18T22:02:51.314Z,15.10
2022-08-18T22:05:55.026Z,15.10
2022-08-18T22:08:27.599Z,15.50
2022-08-18T22:12:00.644Z,15.20
2022-08-18T22:14:54.621Z,15.70
2022-08-18T22:17:31.449Z,16.80
2022-08-18T22:20:52.363Z,17.40
2022-08-18T22:23:53.586Z,17.40
2022-08-18T22:26:34.885Z,17.30
2022-08-18T22:29:26.519Z,16.60
2022-08-18T22:32:01.766Z,15.20
2022-08-18T22:34:35.034Z,15.50
2022-08-18T22:37:14.259Z,15.30
2022-08-18T22:39:50.036Z,15.40
2022-08-18T22:42:24.649Z,14.00
2022-08-18T22:45:01.398Z,14.40
2022-08-18T22:47:42.835Z,15.50
2022-08-18T22:50:15.893Z,16.80
2022-08-18T22:52:49.731Z,17.30
2022-08-18T22:55:23.922Z,18.50
2022-08-18T22:57:57.173Z,16.10
2022-08-18T23:00:29.751Z,15.80
2022-08-18T23:03:03.492Z,14.80
2022-08-18T23:05:35.780Z,16.50
2022-08-18T23:08:07.969Z,15.20
2022-08-18T23:10:39.999Z,14.90
2022-08-18T23:13:11.835Z,14.90
2022-08-18T23:15:47.606Z,15.60
2022-08-18T23:18:24.073Z,15.30
2022-08-18T23:21:00.199Z,15.90
2022-08-18T23:23:32.654Z,16.20
2022-08-18T23:26:25.068Z,16.40
2022-08-18T23:29:04.709Z,17.10
2022-08-18T23:31:41.587Z,18.20
2022-08-18T23:34:15.606Z,17.00
2022-08-18T23:37:01.389Z,15.40
2022-08-18T23:39:35.267Z,14.50
2022-08-18T23:42:13.063Z,15.30
2022-08-18T23:44:44.807Z,14.10
2022-08-18T23:47:21.192Z,14.60
2022-08-18T23:50:13.856Z,14.50
2022-08-18T23:52:48.883Z,15.00
2022-08-18T23:55:23.974Z,16.40
2022-08-18T23:57:58.646Z,16.70
